TimeCDT,TemperatureF,Dew PointF,Humidity,Sea Level PressureIn,VisibilityMPH,Wind Direction,Wind SpeedMPH,Gust SpeedMPH,PrecipitationIn,Events,Conditions,WindDirDegrees,DateUTC
12:15 AM,59.2,54.5,84,30.12,10.0,East,12.7,-,N/A,,Mostly Cloudy,100,2013-05-24 05:15:00
12:35 AM,59.2,54.5,84,30.12,10.0,ESE,11.5,-,N/A,,Overcast,110,2013-05-24 05:35:00
12:55 AM,59.2,54.5,84,30.13,10.0,ESE,10.4,-,N/A,,Overcast,110,2013-05-24 05:55:00
1:15 AM,59.4,54.5,84,30.15,10.0,ESE,8.1,-,N/A,,Overcast,110,2013-05-24 06:15:00
1:35 AM,59.4,54.3,83,30.14,10.0,East,8.1,-,N/A,,Overcast,100,2013-05-24 06:35:00
1:55 AM,59.9,54.5,82,30.14,10.0,ESE,9.2,-,N/A,,Overcast,110,2013-05-24 06:55:00
2:15 AM,59.9,54.5,82,30.14,10.0,ESE,8.1,-,N/A,,Overcast,110,2013-05-24 07:15:00
2:35 AM,59.9,54.5,82,30.14,10.0,East,8.1,-,N/A,,Overcast,100,2013-05-24 07:35:00
2:55 AM,59.9,54.5,82,30.14,10.0,ESE,10.4,-,N/A,,Overcast,120,2013-05-24 07:55:00
3:15 AM,59.9,54.7,83,30.12,10.0,ESE,11.5,17.3,N/A,,Overcast,120,2013-05-24 08:15:00
3:35 AM,59.5,54.5,83,30.13,10.0,ESE,9.2,-,N/A,,Overcast,110,2013-05-24 08:35:00
3:55 AM,59.4,54.5,84,30.14,10.0,ESE,6.9,-,N/A,,Overcast,110,2013-05-24 08:55:00
4:15 AM,59.2,54.5,84,30.12,10.0,ESE,11.5,-,N/A,,Overcast,110,2013-05-24 09:15:00
4:35 AM,59.4,54.5,84,30.12,10.0,ESE,12.7,-,N/A,,Overcast,120,2013-05-24 09:35:00
4:55 AM,59.5,54.1,82,30.11,10.0,ESE,13.8,-,N/A,,Overcast,120,2013-05-24 09:55:00
5:15 AM,59.7,54.1,82,30.12,10.0,ESE,11.5,-,N/A,,Overcast,120,2013-05-24 10:15:00
5:35 AM,59.9,54.0,81,30.14,10.0,ESE,10.4,-,N/A,,Overcast,120,2013-05-24 10:35:00
5:55 AM,59.9,54.1,81,30.14,10.0,ESE,10.4,-,N/A,,Overcast,120,2013-05-24 10:55:00
6:15 AM,59.9,54.1,81,30.14,10.0,SE,11.5,-,N/A,,Overcast,130,2013-05-24 11:15:00
6:35 AM,59.9,54.1,81,30.14,10.0,SE,15.0,-,N/A,,Overcast,140,2013-05-24 11:35:00
6:55 AM,60.6,54.5,80,30.14,10.0,SE,19.6,-,N/A,,Overcast,140,2013-05-24 11:55:00
7:15 AM,60.1,56.1,87,30.14,7.0,SE,16.1,-,N/A,,Overcast,140,2013-05-24 12:15:00
7:35 AM,60.8,56.7,86,30.14,7.0,SE,21.9,-,N/A,,Overcast,140,2013-05-24 12:35:00
7:55 AM,60.3,56.5,87,30.15,7.0,SSE,18.4,24.2,N/A,,Overcast,150,2013-05-24 12:55:00
8:15 AM,60.1,56.8,89,30.14,7.0,SSE,20.7,-,N/A,,Overcast,150,2013-05-24 13:15:00
8:35 AM,60.8,57.2,88,30.14,7.0,SE,16.1,-,N/A,,Overcast,140,2013-05-24 13:35:00
8:55 AM,61.7,57.9,87,30.15,7.0,SE,16.1,-,N/A,,Overcast,140,2013-05-24 13:55:00
9:15 AM,63.0,58.1,84,30.16,7.0,SE,16.1,20.7,N/A,,Overcast,140,2013-05-24 14:15:00
9:35 AM,64.8,58.6,81,30.17,7.0,SSE,17.3,-,N/A,,Overcast,150,2013-05-24 14:35:00
9:55 AM,67.5,58.8,74,30.17,7.0,South,16.1,-,N/A,,Mostly Cloudy,170,2013-05-24 14:55:00
10:15 AM,69.1,58.8,70,30.16,10.0,South,16.1,24.2,N/A,,Scattered Clouds,170,2013-05-24 15:15:00
10:35 AM,70.7,59.0,66,30.16,10.0,South,17.3,-,N/A,,Clear,180,2013-05-24 15:35:00
10:55 AM,71.6,58.1,62,30.16,10.0,South,18.4,21.9,N/A,,Clear,170,2013-05-24 15:55:00
11:15 AM,72.7,59.2,62,30.16,10.0,SSE,15.0,24.2,N/A,,Clear,150,2013-05-24 16:15:00
11:35 AM,74.1,59.7,61,30.16,10.0,SSE,18.4,24.2,N/A,,Clear,160,2013-05-24 16:35:00
11:55 AM,75.2,59.7,58,30.15,10.0,SSE,17.3,25.3,N/A,,Clear,160,2013-05-24 16:55:00
12:15 PM,74.5,59.9,60,30.14,10.0,SSE,17.3,21.9,N/A,,Clear,160,2013-05-24 17:15:00
12:35 PM,77.0,59.7,55,30.14,10.0,SSE,20.7,24.2,N/A,,Clear,150,2013-05-24 17:35:00
12:55 PM,78.6,59.4,51,30.14,10.0,South,18.4,23.0,N/A,,Clear,180,2013-05-24 17:55:00
1:15 PM,79.7,59.0,49,30.13,10.0,SSE,17.3,27.6,N/A,,Clear,160,2013-05-24 18:15:00
1:35 PM,80.2,59.4,49,30.12,10.0,SSE,24.2,31.1,N/A,,Clear,160,2013-05-24 18:35:00
1:55 PM,81.9,59.0,46,30.12,10.0,South,21.9,29.9,N/A,,Clear,180,2013-05-24 18:55:00
2:15 PM,83.3,58.3,42,30.11,10.0,South,20.7,27.6,N/A,,Clear,180,2013-05-24 19:15:00
2:35 PM,83.8,58.8,43,30.10,10.0,SSE,23.0,31.1,N/A,,Clear,150,2013-05-24 19:35:00
2:55 PM,83.3,57.9,42,30.10,10.0,South,23.0,29.9,N/A,,Clear,170,2013-05-24 19:55:00
3:15 PM,83.3,56.7,40,30.10,10.0,South,23.0,34.5,N/A,,Clear,180,2013-05-24 20:15:00
3:35 PM,82.4,56.8,42,30.09,10.0,SSE,24.2,31.1,N/A,,Clear,160,2013-05-24 20:35:00
3:55 PM,82.9,57.2,41,30.08,10.0,SSE,21.9,27.6,N/A,,Clear,160,2013-05-24 20:55:00
4:15 PM,83.5,57.6,41,30.06,10.0,SSE,25.3,32.2,N/A,,Clear,160,2013-05-24 21:15:00
4:35 PM,86.2,56.7,36,30.05,10.0,SSE,21.9,32.2,N/A,,Clear,160,2013-05-24 21:35:00
4:55 PM,86.2,55.6,35,30.05,10.0,SSE,25.3,32.2,N/A,,Clear,160,2013-05-24 21:55:00
5:15 PM,86.9,55.2,34,30.03,10.0,SSE,29.9,35.7,N/A,,Clear,160,2013-05-24 22:15:00
5:35 PM,87.6,54.3,32,30.02,10.0,SSE,25.3,36.8,N/A,,Clear,160,2013-05-24 22:35:00
5:55 PM,88.2,51.4,28,30.02,10.0,South,27.6,33.4,N/A,,Clear,170,2013-05-24 22:55:00
6:15 PM,87.8,51.3,28,30.01,10.0,South,26.5,32.2,N/A,,Clear,170,2013-05-24 23:15:00
6:35 PM,88.0,46.6,24,30.00,10.0,South,29.9,35.7,N/A,,Clear,170,2013-05-24 23:35:00
6:55 PM,87.3,46.4,24,30.00,10.0,South,28.8,35.7,N/A,,Clear,180,2013-05-24 23:55:00
7:15 PM,86.4,47.5,26,29.99,10.0,South,26.5,34.5,N/A,,Clear,170,2013-05-25 00:15:00
7:35 PM,84.6,48.0,28,30.00,10.0,South,28.8,34.5,N/A,,Clear,170,2013-05-25 00:35:00
7:55 PM,83.3,48.2,29,30.00,10.0,South,24.2,29.9,N/A,,Clear,170,2013-05-25 00:55:00
8:15 PM,82.2,48.4,31,30.00,10.0,South,20.7,-,N/A,,Clear,170,2013-05-25 01:15:00
8:35 PM,81.1,48.7,32,30.00,10.0,South,17.3,23.0,N/A,,Clear,170,2013-05-25 01:35:00
8:55 PM,80.1,48.6,33,30.01,10.0,South,16.1,-,N/A,,Clear,170,2013-05-25 01:55:00
9:15 PM,79.2,48.2,34,30.02,10.0,SSE,15.0,-,N/A,,Clear,160,2013-05-25 02:15:00
9:35 PM,77.7,56.1,47,30.03,10.0,SSE,20.7,29.9,N/A,,Scattered Clouds,160,2013-05-25 02:35:00
9:55 PM,75.9,57.4,52,30.04,10.0,SSE,17.3,26.5,N/A,,Clear,150,2013-05-25 02:55:00
10:15 PM,73.8,58.6,59,30.06,10.0,South,20.7,-,N/A,,Clear,170,2013-05-25 03:15:00
10:35 PM,74.3,58.1,57,30.07,10.0,SSE,20.7,27.6,N/A,,Clear,160,2013-05-25 03:35:00
10:55 PM,73.6,59.2,61,30.07,10.0,SSE,18.4,26.5,N/A,,Clear,160,2013-05-25 03:55:00
11:15 PM,73.4,60.4,64,30.08,10.0,South,23.0,28.8,N/A,,Clear,170,2013-05-25 04:15:00
11:35 PM,72.9,59.5,63,30.08,10.0,South,24.2,28.8,N/A,,Clear,170,2013-05-25 04:35:00
11:55 PM,72.3,57.9,60,30.08,10.0,South,19.6,27.6,N/A,,Clear,180,2013-05-25 04:55:00